Time;durP1;ratioP1;P1;durP2;ratioP2;P2;SDS_P1;SDS_P2;PMS_P1;PMS_P2;Temp;Humidity;BMP_temperature;BMP_pressure;BME280_temperature;BME280_humidity;BME280_pressure;Samples;Min_cycle;Max_cycle;Signal;HPM_P1;HPM_P2
2022/09/24 00:01:09;;;;;;;8.93;8.23;;;;;;;6.07;100.00;96895.78;4972042;28;20212;-60
2022/09/24 00:03:45;;;;;;;9.73;8.50;;;;;;;6.05;100.00;96891.66;5004740;28;20662;-57
2022/09/24 00:06:13;;;;;;;9.77;8.87;;;;;;;6.00;100.00;96886.88;4988171;28;20392;-57
2022/09/24 00:08:42;;;;;;;10.10;9.13;;;;;;;5.99;100.00;96884.41;4957601;28;20216;-58
2022/09/24 00:11:12;;;;;;;10.17;8.63;;;;;;;5.99;100.00;96881.78;5003667;28;20390;-58
2022/09/24 00:13:41;;;;;;;9.30;8.50;;;;;;;6.01;100.00;96882.47;5006446;28;20211;-60
2022/09/24 00:16:13;;;;;;;8.73;8.00;;;;;;;6.07;100.00;96873.94;5003576;28;20343;-57
2022/09/24 00:18:41;;;;;;;8.30;7.60;;;;;;;6.06;100.00;96878.38;5003986;28;20204;-61
2022/09/24 00:21:17;;;;;;;9.13;8.10;;;;;;;6.06;100.00;96873.09;4977006;28;20520;-61
2022/09/24 00:23:49;;;;;;;8.57;7.93;;;;;;;6.06;100.00;96875.75;4978327;28;20246;-62
2022/09/24 00:29:04;;;;;;;8.87;8.17;;;;;;;6.07;100.00;96877.38;4999027;28;20998;-59
2022/09/24 00:31:49;;;;;;;9.37;8.70;;;;;;;6.09;100.00;96879.88;4983425;28;20484;-60
2022/09/24 00:34:18;;;;;;;10.33;9.43;;;;;;;6.05;100.00;96876.72;5006864;28;20325;-57
2022/09/24 00:36:47;;;;;;;8.93;8.23;;;;;;;6.01;100.00;96872.78;4981452;28;20711;-58
2022/09/24 00:39:16;;;;;;;9.40;8.70;;;;;;;6.02;100.00;96881.47;5006340;28;20668;-57
2022/09/24 00:41:47;;;;;;;8.97;8.20;;;;;;;6.02;100.00;96879.69;4954705;28;20223;-59
2022/09/24 00:44:47;;;;;;;9.07;8.27;;;;;;;6.05;100.00;96878.50;5005056;28;20751;-59
2022/09/24 00:47:24;;;;;;;9.80;8.00;;;;;;;6.06;100.00;96867.00;5002925;28;20464;-60
2022/09/24 00:49:59;;;;;;;8.47;7.70;;;;;;;6.11;100.00;96867.38;5004583;28;20216;-62
2022/09/24 00:52:27;;;;;;;8.40;7.80;;;;;;;6.07;100.00;96860.78;4980378;28;20581;-60
2022/09/24 00:54:55;;;;;;;8.13;7.43;;;;;;;6.06;100.00;96865.22;5009741;28;20740;-60
2022/09/24 00:57:23;;;;;;;8.63;8.03;;;;;;;6.04;100.00;96864.56;4950473;28;20228;-62
2022/09/24 00:59:53;;;;;;;8.47;7.87;;;;;;;6.10;100.00;96857.84;4999982;28;20299;-59
2022/09/24 01:02:23;;;;;;;9.47;7.93;;;;;;;6.13;100.00;96867.19;4976689;28;20857;-61
2022/09/24 01:04:53;;;;;;;9.27;8.47;;;;;;;6.12;100.00;96857.66;5010517;28;20596;-62
2022/09/24 01:07:24;;;;;;;8.17;7.57;;;;;;;6.14;100.00;96860.94;4984612;28;20825;-58
2022/09/24 01:09:52;;;;;;;8.30;7.70;;;;;;;6.15;100.00;96859.94;5006094;28;20724;-57
2022/09/24 01:12:27;;;;;;;7.80;7.20;;;;;;;6.17;100.00;96863.25;4955749;28;20208;-61
2022/09/24 01:15:03;;;;;;;9.03;8.23;;;;;;;6.19;100.00;96861.25;5011241;28;20238;-59
2022/09/24 01:17:38;;;;;;;8.83;7.93;;;;;;;6.22;100.00;96850.41;5009193;28;20251;-58
2022/09/24 01:20:25;;;;;;;8.23;7.53;;;;;;;6.22;100.00;96847.78;5002894;28;20295;-60
2022/09/24 01:23:04;;;;;;;8.47;7.67;;;;;;;6.18;100.00;96843.84;4983140;28;20514;-61
2022/09/24 01:25:40;;;;;;;7.50;6.90;;;;;;;6.15;100.00;96847.63;5010277;28;20228;-62
2022/09/24 01:28:23;;;;;;;8.10;7.50;;;;;;;6.16;100.00;96841.38;4954378;28;20310;-57
2022/09/24 01:30:58;;;;;;;8.03;7.33;;;;;;;6.11;100.00;96841.06;5011652;28;20200;-56
2022/09/24 01:33:28;;;;;;;7.63;6.93;;;;;;;6.11;100.00;96843.69;5002319;28;20208;-58
2022/09/24 01:35:58;;;;;;;8.17;7.50;;;;;;;6.12;100.00;96840.06;5009159;28;20791;-58
2022/09/24 01:38:29;;;;;;;7.57;7.07;;;;;;;6.11;100.00;96841.06;4984669;28;20397;-60
2022/09/24 01:41:02;;;;;;;7.93;7.13;;;;;;;6.06;100.00;96843.34;5005702;28;20208;-57
2022/09/24 01:43:31;;;;;;;8.03;7.43;;;;;;;6.08;100.00;96838.75;4976571;28;20354;-59
2022/09/24 01:46:05;;;;;;;8.13;7.50;;;;;;;6.12;100.00;96841.88;5007258;28;23131;-59
2022/09/24 01:48:36;;;;;;;8.03;7.23;;;;;;;6.16;100.00;96837.91;5006832;28;20365;-61
2022/09/24 01:51:09;;;;;;;8.83;8.10;;;;;;;6.17;100.00;96835.13;5007376;28;20270;-60
2022/09/24 01:53:59;;;;;;;7.80;7.20;;;;;;;6.19;100.00;96829.69;4983126;28;20762;-59
2022/09/24 01:56:50;;;;;;;7.63;7.03;;;;;;;6.18;100.00;96834.16;5005355;28;20699;-58
2022/09/24 01:59:23;;;;;;;7.67;7.07;;;;;;;6.20;100.00;96828.72;4948332;28;20409;-60
2022/09/24 02:01:59;;;;;;;7.63;7.03;;;;;;;6.15;100.00;96823.13;4927430;28;20653;-58
2022/09/24 02:04:28;;;;;;;7.77;7.07;;;;;;;6.12;100.00;96823.47;5003586;28;20727;-59
2022/09/24 02:06:59;;;;;;;7.97;7.20;;;;;;;6.10;100.00;96815.75;5010161;28;20476;-60
2022/09/24 02:09:31;;;;;;;8.33;7.57;;;;;;;6.07;100.00;96803.72;5005753;28;20222;-58
2022/09/24 02:12:03;;;;;;;7.30;6.73;;;;;;;6.05;100.00;96796.97;5008325;28;20684;-60
2022/09/24 02:14:32;;;;;;;8.07;7.40;;;;;;;6.01;100.00;96793.03;5004976;28;20741;-60
2022/09/24 02:17:04;;;;;;;7.30;6.80;;;;;;;5.98;100.00;96798.59;4959175;28;20222;-56
2022/09/24 02:19:36;;;;;;;10.27;8.10;;;;;;;5.95;100.00;96797.13;4972338;28;20223;-60
2022/09/24 02:22:05;;;;;;;7.63;7.03;;;;;;;5.94;100.00;96791.03;4998818;28;20227;-61
2022/09/24 02:24:37;;;;;;;8.00;7.40;;;;;;;5.94;100.00;96783.16;5008227;28;20635;-60
2022/09/24 02:27:06;;;;;;;8.23;7.50;;;;;;;5.91;100.00;96785.31;5003533;28;20205;-59
2022/09/24 02:29:34;;;;;;;8.27;7.47;;;;;;;5.87;100.00;96779.53;5007735;28;20205;-59
2022/09/24 02:32:05;;;;;;;7.43;6.83;;;;;;;5.79;100.00;96769.03;4954663;28;20239;-57
2022/09/24 02:34:37;;;;;;;9.23;8.30;;;;;;;5.75;100.00;96765.88;4982125;28;20230;-60
2022/09/24 02:37:06;;;;;;;7.47;6.93;;;;;;;5.60;100.00;96767.53;5009758;28;20783;-58
2022/09/24 02:39:35;;;;;;;7.90;7.30;;;;;;;5.54;100.00;96762.94;5006130;28;20623;-60
2022/09/24 02:42:04;;;;;;;7.87;7.27;;;;;;;5.51;100.00;96764.06;5009628;28;20299;-57
2022/09/24 02:44:33;;;;;;;8.23;7.63;;;;;;;5.55;100.00;96759.31;5004134;28;20224;-60
2022/09/24 02:47:01;;;;;;;8.07;7.37;;;;;;;5.53;100.00;96759.47;4950972;28;20715;-57
2022/09/24 02:49:30;;;;;;;8.20;7.60;;;;;;;5.53;100.00;96756.03;5005603;28;20259;-60
2022/09/24 02:51:59;;;;;;;8.87;8.17;;;;;;;5.49;100.00;96743.22;5006494;28;20201;-59
2022/09/24 02:54:27;;;;;;;8.77;7.90;;;;;;;5.40;100.00;96741.53;4998794;28;20331;-57
2022/09/24 02:56:55;;;;;;;8.80;8.13;;;;;;;5.39;100.00;96733.84;5004735;28;20287;-59
2022/09/24 02:59:23;;;;;;;7.77;7.17;;;;;;;5.34;100.00;96732.53;5003884;28;20322;-59
2022/09/24 03:01:51;;;;;;;7.73;7.13;;;;;;;5.28;100.00;96734.97;5001740;28;20294;-55
2022/09/24 03:04:20;;;;;;;7.50;6.90;;;;;;;5.26;100.00;96739.56;4954748;28;20228;-60
2022/09/24 03:06:50;;;;;;;7.40;6.73;;;;;;;5.16;100.00;96737.91;5005126;28;20570;-59
2022/09/24 03:09:18;;;;;;;8.60;7.93;;;;;;;5.11;100.00;96745.41;5009819;28;20432;-57
2022/09/24 03:11:46;;;;;;;7.77;7.17;;;;;;;5.04;100.00;96744.41;5007182;28;20504;-58
2022/09/24 03:14:14;;;;;;;7.60;7.00;;;;;;;5.00;100.00;96745.72;4985095;28;20238;-61
2022/09/24 03:16:42;;;;;;;8.57;7.97;;;;;;;4.91;100.00;96744.88;5005220;28;20282;-57
2022/09/24 03:19:10;;;;;;;7.90;7.30;;;;;;;4.83;100.00;96744.84;4955555;28;20457;-56
2022/09/24 03:21:39;;;;;;;7.30;6.63;;;;;;;4.76;100.00;96750.72;5004507;28;20307;-56
2022/09/24 03:24:08;;;;;;;7.80;7.20;;;;;;;4.74;100.00;96742.19;5007732;28;20286;-55
2022/09/24 03:26:36;;;;;;;8.07;7.47;;;;;;;4.71;100.00;96746.91;5003670;28;20209;-59
2022/09/24 03:29:05;;;;;;;7.70;7.07;;;;;;;4.73;100.00;96750.22;5005262;28;20200;-60
2022/09/24 03:31:32;;;;;;;8.53;7.77;;;;;;;4.83;100.00;96750.94;5005905;28;20490;-59
2022/09/24 03:34:00;;;;;;;7.83;7.03;;;;;;;4.92;100.00;96749.97;4976015;28;20535;-57
2022/09/24 03:36:28;;;;;;;7.57;6.97;;;;;;;5.01;100.00;96740.31;4951749;28;20383;-52
2022/09/24 03:39:15;;;;;;;8.47;7.77;;;;;;;5.10;100.00;96746.41;4999638;28;20314;-54
2022/09/24 03:42:04;;;;;;;8.87;8.10;;;;;;;5.29;100.00;96758.44;5004022;28;20207;-54
2022/09/24 03:44:33;;;;;;;7.43;6.93;;;;;;;5.32;100.00;96754.69;4962144;28;20359;-51
2022/09/24 03:47:01;;;;;;;7.80;7.20;;;;;;;5.36;100.00;96748.94;5000653;28;20211;-50
2022/09/24 03:49:29;;;;;;;7.67;7.07;;;;;;;5.33;100.00;96749.28;4947415;28;21771;-51
2022/09/24 03:51:57;;;;;;;7.30;6.80;;;;;;;5.30;100.00;96756.63;4979578;28;20297;-52
2022/09/24 03:54:25;;;;;;;7.90;7.10;;;;;;;5.29;100.00;96755.81;4992474;28;20231;-53
2022/09/24 03:56:53;;;;;;;7.53;6.90;;;;;;;5.26;100.00;96740.38;4966143;28;20978;-50
2022/09/24 03:59:23;;;;;;;7.30;6.73;;;;;;;5.22;100.00;96733.78;4998997;28;20232;-49
2022/09/24 04:01:51;;;;;;;8.20;7.47;;;;;;;5.20;100.00;96738.38;4999107;28;20283;-52
2022/09/24 04:04:22;;;;;;;8.10;7.50;;;;;;;5.18;100.00;96738.56;4967209;28;20267;-54
2022/09/24 04:06:51;;;;;;;7.40;6.90;;;;;;;5.17;100.00;96733.47;4997621;28;20311;-51
2022/09/24 04:09:19;;;;;;;7.97;7.27;;;;;;;5.15;100.00;96744.16;4911543;28;20217;-51
2022/09/24 04:11:47;;;;;;;10.10;7.83;;;;;;;5.16;100.00;96737.91;4978227;28;20233;-52
2022/09/24 04:14:15;;;;;;;8.10;7.50;;;;;;;5.21;100.00;96750.53;4981685;28;21467;-57
2022/09/24 04:16:45;;;;;;;7.47;6.97;;;;;;;5.26;100.00;96752.69;4956125;28;20216;-62
2022/09/24 04:19:14;;;;;;;7.97;7.40;;;;;;;5.29;100.00;96753.19;4998639;28;20447;-60
2022/09/24 04:21:43;;;;;;;8.43;7.83;;;;;;;5.27;100.00;96754.34;4996649;28;20208;-58
2022/09/24 04:24:11;;;;;;;7.97;7.37;;;;;;;5.24;100.00;96746.78;4943085;28;20333;-60
2022/09/24 04:26:39;;;;;;;8.63;8.00;;;;;;;5.22;100.00;96747.75;4996480;28;20317;-60
2022/09/24 04:29:08;;;;;;;8.20;6.97;;;;;;;5.19;100.00;96747.25;4973652;28;21245;-59
2022/09/24 04:31:37;;;;;;;7.97;7.37;;;;;;;5.18;100.00;96751.69;4978314;28;20212;-60
2022/09/24 04:34:06;;;;;;;7.83;7.23;;;;;;;5.22;100.00;96747.75;4996236;28;20341;-57
2022/09/24 04:36:35;;;;;;;8.17;7.37;;;;;;;5.24;100.00;96750.22;4991242;28;20211;-60
2022/09/24 04:39:03;;;;;;;7.90;7.30;;;;;;;5.17;100.00;96746.59;4954992;28;20840;-59
2022/09/24 04:41:33;;;;;;;8.67;7.53;;;;;;;5.13;100.00;96740.84;4998159;28;20311;-59
2022/09/24 04:44:02;;;;;;;8.50;7.73;;;;;;;5.04;100.00;96745.25;4999775;28;20227;-60
2022/09/24 04:46:32;;;;;;;8.70;7.90;;;;;;;4.90;100.00;96736.19;4975999;28;20218;-58
2022/09/24 04:49:00;;;;;;;10.82;9.85;;;;;;;4.89;100.00;96746.81;4965876;28;20544;-62
2022/09/24 04:51:34;;;;;;;8.03;7.43;;;;;;;4.87;100.00;96739.13;4988672;28;20476;-56
2022/09/24 04:54:02;;;;;;;8.37;7.83;;;;;;;4.88;100.00;96725.03;4960825;28;20669;-61
2022/09/24 04:56:31;;;;;;;8.90;8.20;;;;;;;4.93;100.00;96729.81;4967897;28;20206;-55
2022/09/24 04:58:59;;;;;;;9.13;8.23;;;;;;;4.93;100.00;96732.44;4981560;28;20419;-59
2022/09/24 05:01:28;;;;;;;8.50;7.70;;;;;;;4.92;100.00;96739.47;4988532;28;20270;-53
2022/09/24 05:03:56;;;;;;;10.13;9.23;;;;;;;4.98;100.00;96745.06;4962036;28;20432;-56
2022/09/24 05:06:24;;;;;;;8.40;7.70;;;;;;;4.96;100.00;96739.16;4989872;28;20236;-59
2022/09/24 05:08:54;;;;;;;8.67;7.97;;;;;;;4.91;100.00;96737.00;4985096;28;20224;-62
2022/09/24 05:11:22;;;;;;;9.27;8.47;;;;;;;4.85;100.00;96732.38;4961794;28;20467;-57
2022/09/24 05:13:50;;;;;;;8.33;7.63;;;;;;;4.89;100.00;96724.03;4977459;28;20541;-60
2022/09/24 05:16:18;;;;;;;8.13;7.33;;;;;;;4.97;100.00;96717.16;4991921;28;20583;-57
2022/09/24 05:18:46;;;;;;;8.63;7.83;;;;;;;4.95;100.00;96713.88;4991501;28;20213;-59
2022/09/24 05:21:14;;;;;;;8.27;7.57;;;;;;;5.04;100.00;96716.38;5006591;28;20320;-55
2022/09/24 05:23:43;;;;;;;8.13;7.57;;;;;;;5.02;100.00;96709.63;5010758;28;20204;-60
2022/09/24 05:28:58;;;;;;;10.90;10.00;;;;;;;5.17;100.00;96715.06;5005338;28;20207;-57
2022/09/24 05:31:26;;;;;;;11.90;10.90;;;;;;;5.22;100.00;96724.13;4990382;28;20941;-62
2022/09/24 05:33:54;;;;;;;9.27;8.57;;;;;;;5.30;100.00;96730.38;4978891;28;20212;-59
2022/09/24 05:36:25;;;;;;;9.10;8.30;;;;;;;5.39;100.00;96733.84;4982560;28;20212;-56
2022/09/24 05:38:53;;;;;;;9.53;8.10;;;;;;;5.44;100.00;96734.16;4987924;28;20769;-59
2022/09/24 05:41:23;;;;;;;10.03;8.83;;;;;;;5.52;100.00;96730.75;4941223;28;20611;-61
2022/09/24 05:43:51;;;;;;;9.20;8.40;;;;;;;5.53;100.00;96730.56;5003082;28;20644;-60
2022/09/24 05:46:19;;;;;;;9.20;8.43;;;;;;;5.62;100.00;96729.56;4988403;28;20621;-58
2022/09/24 05:48:48;;;;;;;9.00;8.23;;;;;;;5.68;100.00;96727.28;4971314;28;20243;-61
2022/09/24 05:51:16;;;;;;;9.27;8.53;;;;;;;5.74;100.00;96726.63;5007858;28;20319;-62
2022/09/24 05:53:44;;;;;;;8.37;7.77;;;;;;;5.80;100.00;96718.91;5002576;28;20201;-59
2022/09/24 05:56:12;;;;;;;8.10;7.40;;;;;;;5.87;100.00;96715.59;4976738;28;22788;-60
2022/09/24 05:58:42;;;;;;;8.43;7.83;;;;;;;5.87;100.00;96702.44;4934926;28;20208;-63
2022/09/24 06:01:10;;;;;;;8.53;7.80;;;;;;;6.05;100.00;96702.28;4996759;28;20415;-58
2022/09/24 06:03:38;;;;;;;9.17;8.57;;;;;;;6.12;100.00;96702.47;4966504;28;20676;-63
2022/09/24 06:06:07;;;;;;;7.43;6.93;;;;;;;6.10;100.00;96701.81;5000546;28;20541;-55
2022/09/24 06:08:35;;;;;;;8.23;7.53;;;;;;;6.17;100.00;96708.03;5006763;28;20370;-59
2022/09/24 06:11:05;;;;;;;8.30;7.50;;;;;;;6.11;100.00;96703.44;4974985;28;20245;-57
2022/09/24 06:13:33;;;;;;;8.87;8.07;;;;;;;6.17;100.00;96708.03;4955349;28;20212;-56
2022/09/24 06:16:04;;;;;;;16.13;10.20;;;;;;;6.29;100.00;96703.25;4947793;28;20232;-58
2022/09/24 06:18:33;;;;;;;22.37;13.43;;;;;;;6.34;100.00;96707.03;4984195;28;20505;-58
2022/09/24 06:21:03;;;;;;;7.07;6.57;;;;;;;6.41;100.00;96707.16;5003982;28;20224;-60
2022/09/24 06:23:32;;;;;;;7.97;7.27;;;;;;;6.40;100.00;96716.03;4981270;28;20206;-56
2022/09/24 06:26:00;;;;;;;7.40;6.90;;;;;;;6.40;100.00;96707.34;5001046;28;20623;-61
2022/09/24 06:28:28;;;;;;;7.90;7.30;;;;;;;6.59;100.00;96719.28;4974995;28;20239;-62
2022/09/24 06:30:59;;;;;;;7.00;6.40;;;;;;;6.64;100.00;96716.94;4951719;28;20294;-60
2022/09/24 06:33:29;;;;;;;7.23;6.63;;;;;;;6.67;100.00;96721.88;4981356;28;20239;-61
2022/09/24 06:36:00;;;;;;;7.90;7.20;;;;;;;6.75;100.00;96713.94;4978144;28;20223;-61
2022/09/24 06:38:29;;;;;;;7.87;7.27;;;;;;;6.79;100.00;96722.31;4988994;28;20961;-57
2022/09/24 06:40:59;;;;;;;6.97;6.47;;;;;;;6.63;100.00;96708.25;4999225;28;20235;-62
2022/09/24 06:43:28;;;;;;;6.50;6.10;;;;;;;6.74;100.00;96714.13;4996469;28;20730;-60
2022/09/24 06:45:56;;;;;;;7.70;6.13;;;;;;;6.57;100.00;96700.19;4974945;28;20236;-62
2022/09/24 06:48:26;;;;;;;6.50;5.90;;;;;;;6.58;100.00;96718.44;4969508;28;20759;-52
2022/09/24 06:50:56;;;;;;;6.57;6.13;;;;;;;6.43;100.00;96717.53;5005907;28;20293;-55
2022/09/24 06:53:24;;;;;;;6.93;6.43;;;;;;;6.40;100.00;96710.78;5000613;28;21529;-59
2022/09/24 06:55:53;;;;;;;6.97;6.53;;;;;;;6.29;100.00;96704.09;5003828;28;20355;-58
2022/09/24 06:58:22;;;;;;;7.00;6.40;;;;;;;6.32;100.00;96703.75;4996560;28;20908;-55
2022/09/24 07:00:53;;;;;;;7.30;6.70;;;;;;;6.29;100.00;96711.13;4986481;28;20229;-58
2022/09/24 07:03:21;;;;;;;7.77;7.27;;;;;;;6.21;100.00;96715.44;4937942;28;20550;-58
2022/09/24 07:05:49;;;;;;;7.27;6.53;;;;;;;6.18;100.00;96726.28;5004821;28;20320;-61
2022/09/24 07:08:19;;;;;;;7.57;6.97;;;;;;;6.27;100.00;96726.28;4999984;28;20235;-62
2022/09/24 07:10:49;;;;;;;7.30;6.70;;;;;;;6.26;100.00;96728.09;5004189;28;21037;-58
2022/09/24 07:13:17;;;;;;;6.97;6.57;;;;;;;6.36;100.00;96723.47;5005233;28;20227;-59
2022/09/24 07:15:45;;;;;;;7.93;6.93;;;;;;;6.38;100.00;96725.91;4988065;28;20263;-62
2022/09/24 07:18:13;;;;;;;7.30;6.60;;;;;;;6.63;100.00;96713.50;4953178;28;21108;-63
2022/09/24 07:20:42;;;;;;;8.00;7.30;;;;;;;6.85;100.00;96720.81;4987607;28;20252;-58
2022/09/24 07:23:11;;;;;;;7.30;6.60;;;;;;;6.98;100.00;96721.09;4998663;28;20294;-57
2022/09/24 07:25:41;;;;;;;8.43;7.53;;;;;;;7.22;100.00;96722.75;5006369;28;20953;-59
2022/09/24 07:28:12;;;;;;;6.77;6.23;;;;;;;7.61;100.00;96722.84;5000554;28;20742;-61
2022/09/24 07:30:40;;;;;;;7.33;6.73;;;;;;;8.08;100.00;96721.78;4986386;28;20218;-56
2022/09/24 07:33:09;;;;;;;7.03;6.43;;;;;;;8.30;100.00;96713.97;4951718;28;20682;-59
2022/09/24 07:35:38;;;;;;;6.50;6.10;;;;;;;8.77;100.00;96719.94;4981076;28;20228;-57
2022/09/24 07:38:08;;;;;;;6.67;6.27;;;;;;;8.98;100.00;96708.59;4995540;28;20304;-60
2022/09/24 07:40:36;;;;;;;6.57;6.13;;;;;;;9.18;100.00;96705.34;5000369;28;20292;-57
2022/09/24 07:43:12;;;;;;;6.40;5.90;;;;;;;9.36;100.00;96709.41;4998634;28;20251;-60
2022/09/24 07:45:41;;;;;;;6.37;5.87;;;;;;;9.64;100.00;96701.53;5000679;28;20236;-59
2022/09/24 07:48:11;;;;;;;5.90;5.43;;;;;;;9.85;100.00;96705.19;4998676;28;20239;-57
2022/09/24 07:50:41;;;;;;;6.13;5.63;;;;;;;9.93;100.00;96706.84;4957477;28;20307;-57
2022/09/24 07:53:10;;;;;;;6.27;5.80;;;;;;;10.07;100.00;96705.97;4980305;28;20328;-60
2022/09/24 07:55:39;;;;;;;6.43;6.00;;;;;;;10.25;100.00;96713.41;5010106;28;20803;-58
2022/09/24 07:58:12;;;;;;;6.17;5.70;;;;;;;10.37;100.00;96704.94;4997480;28;20496;-60
2022/09/24 08:00:41;;;;;;;5.90;5.47;;;;;;;10.62;100.00;96713.25;4984719;28;20364;-55
2022/09/24 08:03:09;;;;;;;6.10;5.60;;;;;;;10.92;98.35;96696.25;5000775;28;20934;-60
2022/09/24 08:05:43;;;;;;;6.30;5.90;;;;;;;11.22;94.30;96706.56;4958092;28;20224;-53
2022/09/24 08:08:12;;;;;;;6.10;5.60;;;;;;;11.11;90.95;96705.28;4983929;28;20622;-53
2022/09/24 08:10:41;;;;;;;6.23;5.63;;;;;;;11.17;89.70;96704.50;5003826;28;20258;-56
2022/09/24 08:13:11;;;;;;;5.77;5.33;;;;;;;11.39;88.99;96707.84;4999079;28;20219;-54
2022/09/24 08:15:39;;;;;;;6.00;5.50;;;;;;;11.50;90.53;96710.91;4998124;28;20246;-55
2022/09/24 08:18:07;;;;;;;6.20;5.70;;;;;;;11.76;85.85;96706.66;5001947;28;20594;-58
2022/09/24 08:20:36;;;;;;;5.80;5.40;;;;;;;11.84;84.67;96709.13;4948792;28;20215;-53
2022/09/24 08:23:07;;;;;;;6.27;5.77;;;;;;;11.98;84.14;96709.94;4944952;28;20263;-59
2022/09/24 08:25:35;;;;;;;6.20;5.70;;;;;;;11.95;81.89;96708.50;4997401;28;20224;-53
2022/09/24 08:28:04;;;;;;;5.80;5.40;;;;;;;12.19;81.54;96710.75;5001657;28;20204;-56
2022/09/24 08:30:34;;;;;;;6.10;5.70;;;;;;;12.50;82.80;96719.91;4994222;28;20510;-55
2022/09/24 08:33:04;;;;;;;6.53;6.07;;;;;;;12.75;79.88;96717.41;5004387;28;20748;-54
2022/09/24 08:35:33;;;;;;;6.93;6.43;;;;;;;12.93;78.10;96715.91;4992569;28;20223;-57
2022/09/24 08:38:02;;;;;;;6.73;6.23;;;;;;;12.88;79.33;96717.38;4952186;28;20308;-55
2022/09/24 08:40:33;;;;;;;6.13;5.73;;;;;;;13.16;77.84;96715.41;4980568;28;20201;-61
2022/09/24 08:43:06;;;;;;;7.60;6.90;;;;;;;13.11;75.83;96709.91;4998016;28;20376;-55
2022/09/24 08:48:34;;;;;;;7.00;6.30;;;;;;;13.17;75.52;96714.38;4996270;28;20261;-57
2022/09/24 08:51:05;;;;;;;6.73;6.30;;;;;;;13.47;75.47;96705.88;5002977;28;20268;-58
2022/09/24 08:53:42;;;;;;;7.70;7.13;;;;;;;13.60;74.23;96703.13;4952287;28;20607;-56
2022/09/24 08:56:11;;;;;;;6.90;6.47;;;;;;;13.71;74.70;96712.25;4997598;28;20283;-59
2022/09/24 08:58:45;;;;;;;7.10;6.60;;;;;;;13.79;72.55;96710.34;4996130;28;20408;-60
2022/09/24 09:01:21;;;;;;;6.77;6.30;;;;;;;13.86;73.38;96711.94;4995699;28;20314;-59
2022/09/24 09:03:53;;;;;;;7.23;6.73;;;;;;;14.09;73.69;96710.53;4999690;28;20362;-55
2022/09/24 09:06:38;;;;;;;6.70;6.30;;;;;;;14.18;72.22;96706.53;5001290;28;20249;-58
2022/09/24 09:09:11;;;;;;;6.93;6.43;;;;;;;14.42;72.65;96706.75;4953944;28;20311;-56
2022/09/24 09:11:41;;;;;;;7.60;7.10;;;;;;;14.60;70.82;96705.94;4994738;28;20283;-53
2022/09/24 09:14:13;;;;;;;6.73;6.23;;;;;;;14.50;70.75;96704.81;4999047;28;20239;-57
2022/09/24 09:16:47;;;;;;;7.00;6.40;;;;;;;14.24;71.31;96715.53;4998217;28;20675;-57
2022/09/24 09:19:16;;;;;;;7.03;6.53;;;;;;;14.17;71.64;96718.22;5002129;28;20298;-57
2022/09/24 09:21:51;;;;;;;7.53;6.70;;;;;;;14.22;71.58;96714.13;4981723;28;20648;-58
2022/09/24 09:24:22;;;;;;;6.87;6.37;;;;;;;14.30;72.08;96714.63;4953194;28;20326;-58
2022/09/24 09:26:53;;;;;;;7.73;6.93;;;;;;;14.52;72.19;96716.06;4999369;28;20758;-53
2022/09/24 09:29:23;;;;;;;7.17;6.67;;;;;;;14.47;71.46;96704.22;4996820;28;20205;-58
2022/09/24 09:32:02;;;;;;;7.53;6.97;;;;;;;14.64;71.98;96706.31;5003822;28;20578;-54
2022/09/24 09:34:39;;;;;;;7.50;6.47;;;;;;;14.69;70.88;96697.66;4992777;28;20472;-56
2022/09/24 09:37:17;;;;;;;7.17;6.57;;;;;;;14.97;70.64;96699.00;5000868;28;20212;-58
2022/09/24 09:39:55;;;;;;;6.77;6.27;;;;;;;15.08;70.08;96706.25;4955627;28;20223;-55
2022/09/24 09:42:30;;;;;;;7.33;6.73;;;;;;;15.18;70.48;96711.06;4993894;28;20233;-58
2022/09/24 09:45:00;;;;;;;6.93;6.20;;;;;;;15.55;69.20;96708.28;5001390;28;20220;-56
2022/09/24 09:47:39;;;;;;;6.93;6.40;;;;;;;15.63;68.80;96705.28;4998859;28;20212;-60
2022/09/24 09:50:19;;;;;;;7.80;6.77;;;;;;;15.87;68.34;96688.50;5007076;28;20209;-59
2022/09/24 09:52:47;;;;;;;6.03;5.43;;;;;;;16.39;67.43;96706.56;5000442;28;20645;-55
2022/09/24 09:55:23;;;;;;;7.00;6.30;;;;;;;16.48;65.76;96693.69;4952607;28;20220;-59
2022/09/24 09:57:52;;;;;;;6.23;5.83;;;;;;;16.79;65.51;96689.78;4995895;28;20232;-61
2022/09/24 10:00:32;;;;;;;6.23;5.83;;;;;;;16.83;65.15;96686.63;4998663;28;20228;-56
2022/09/24 10:03:02;;;;;;;6.03;5.63;;;;;;;16.86;65.09;96688.88;4988094;28;20235;-57
2022/09/24 10:05:31;;;;;;;5.73;5.40;;;;;;;16.80;64.93;96693.28;4997628;28;20239;-53
2022/09/24 10:07:59;;;;;;;6.17;5.67;;;;;;;16.69;64.71;96688.78;4999371;28;20287;-53
2022/09/24 10:10:29;;;;;;;7.03;6.13;;;;;;;16.59;65.77;96695.53;4951232;28;20427;-56
2022/09/24 10:13:07;;;;;;;7.57;6.10;;;;;;;16.49;65.35;96700.66;4996126;28;20232;-60
2022/09/24 10:15:40;;;;;;;6.37;5.97;;;;;;;16.45;65.69;96694.94;5001961;28;20332;-55
2022/09/24 10:18:14;;;;;;;6.53;5.80;;;;;;;16.35;65.68;96708.09;5002313;28;20206;-55
2022/09/24 10:20:47;;;;;;;6.70;5.90;;;;;;;16.57;66.35;96702.16;5001569;28;20388;-57
2022/09/24 10:23:19;;;;;;;7.23;6.63;;;;;;;16.40;66.52;96694.84;4996321;28;20248;-57
2022/09/24 10:25:51;;;;;;;8.07;6.30;;;;;;;16.62;66.30;96703.06;4957311;28;20677;-51
2022/09/24 10:31:11;;;;;;;6.27;5.70;;;;;;;16.70;65.93;96696.56;4990483;28;20213;-56
2022/09/24 10:33:42;;;;;;;6.20;5.70;;;;;;;16.67;65.99;96701.56;4997949;28;20291;-58
2022/09/24 10:36:15;;;;;;;6.33;5.93;;;;;;;16.45;66.55;96708.31;4999538;28;20240;-59
2022/09/24 10:38:43;;;;;;;7.67;5.97;;;;;;;16.12;66.68;96712.41;5000248;28;20512;-58
2022/09/24 10:41:17;;;;;;;6.80;6.30;;;;;;;16.02;67.31;96704.13;5001551;28;20251;-56
2022/09/24 10:43:50;;;;;;;6.27;5.87;;;;;;;15.94;67.51;96712.47;4938732;28;20224;-57
2022/09/24 10:46:32;;;;;;;6.03;5.63;;;;;;;15.82;68.15;96721.25;4995305;28;20299;-58
2022/09/24 10:49:06;;;;;;;6.30;5.90;;;;;;;15.80;68.35;96723.34;5000478;28;20624;-58
2022/09/24 10:51:39;;;;;;;7.30;6.73;;;;;;;15.97;68.56;96712.03;4994984;28;20389;-57
2022/09/24 10:54:27;;;;;;;7.07;6.47;;;;;;;16.02;68.32;96714.81;5001675;28;20220;-58
2022/09/24 10:56:57;;;;;;;6.27;5.77;;;;;;;15.90;68.51;96718.28;4996651;28;20292;-55
2022/09/24 10:59:39;;;;;;;7.30;5.87;;;;;;;16.05;68.80;96715.19;4948967;28;21317;-55
2022/09/24 11:02:26;;;;;;;6.97;6.27;;;;;;;16.01;68.16;96715.84;4997331;28;20282;-57
2022/09/24 11:04:57;;;;;;;6.90;6.30;;;;;;;15.89;69.14;96721.16;4982192;28;20593;-54
2022/09/24 11:07:43;;;;;;;7.00;6.40;;;;;;;15.77;69.24;96719.28;4998617;28;20300;-56
2022/09/24 11:10:22;;;;;;;7.23;6.63;;;;;;;15.96;68.96;96713.88;4998102;28;20207;-60
2022/09/24 11:13:02;;;;;;;6.97;6.47;;;;;;;16.09;68.33;96717.38;5007031;28;20255;-60
2022/09/24 11:15:49;;;;;;;6.80;6.30;;;;;;;16.26;67.82;96722.84;4947703;28;21803;-52
2022/09/24 11:18:30;;;;;;;7.43;6.73;;;;;;;16.05;68.34;96720.53;5002091;28;20298;-58
2022/09/24 11:21:09;;;;;;;8.07;7.37;;;;;;;16.13;69.06;96718.53;5005745;28;20208;-58
2022/09/24 11:23:51;;;;;;;7.33;6.83;;;;;;;16.08;68.86;96713.88;5003906;28;20228;-61
2022/09/24 11:26:27;;;;;;;7.40;6.73;;;;;;;16.07;68.81;96720.28;5001149;28;20205;-59
2022/09/24 11:29:09;;;;;;;7.73;6.97;;;;;;;15.93;69.34;96713.53;5002725;28;20210;-58
2022/09/24 11:31:42;;;;;;;8.00;7.20;;;;;;;15.62;69.50;96719.69;4942158;28;20443;-55
2022/09/24 11:34:29;;;;;;;8.03;7.53;;;;;;;15.26;71.00;96715.28;4993206;28;20229;-58
2022/09/24 11:37:08;;;;;;;8.10;7.40;;;;;;;15.29;72.43;96712.94;5006741;28;20204;-55
2022/09/24 11:39:46;;;;;;;8.70;7.87;;;;;;;15.25;72.99;96709.09;5005036;28;20884;-54
2022/09/24 11:42:22;;;;;;;9.00;8.23;;;;;;;15.40;73.30;96702.56;4996031;28;20232;-57
2022/09/24 11:45:11;;;;;;;10.40;7.87;;;;;;;15.55;73.37;96700.28;5004389;28;20255;-55
2022/09/24 11:47:55;;;;;;;8.47;7.87;;;;;;;15.55;71.44;96696.81;4952250;28;21193;-52
2022/09/24 11:50:35;;;;;;;7.80;7.30;;;;;;;15.35;72.26;96700.56;4978183;28;20420;-53
2022/09/24 11:53:08;;;;;;;10.03;9.17;;;;;;;15.30;72.37;96706.56;5006436;28;20299;-58
2022/09/24 11:55:39;;;;;;;9.53;8.13;;;;;;;15.19;73.12;96707.34;4999841;28;20522;-60
2022/09/24 11:58:14;;;;;;;8.87;8.07;;;;;;;15.09;74.13;96709.75;5003550;28;20216;-56
2022/09/24 12:00:45;;;;;;;9.83;9.03;;;;;;;15.06;74.02;96711.00;4998034;28;20306;-53
2022/09/24 12:03:17;;;;;;;9.40;8.57;;;;;;;14.93;74.88;96714.63;4956127;28;20256;-59